<?xml version='1.0' encoding='UTF-8'?>
<gpx xmlns="http://www.topografix.com/GPX/1/1" creator="www.balnam.be" version="1.1" xmlns:xsi="http://www.w3.org/2001/XMLSchema-instance" xsi:schemaLocation="http://www.topografix.com/GPX/1/1 http://www.topografix.com/GPX/1/1/gpx.xsd">
<trk>
<name>ngdgdLv524</name>
<cmt>v</cmt>
<desc>Gedinne Chemin n°Lv524 Rue Raymond Gridlet / ligne 553 (vicinal SNCV) / Rue de Charleville</desc>
<link href="https://chemins.be/gedinne/chemin/Lv524"/><trkseg>
<trkpt lat="49.983773" lon="4.977265"><time>2026-05-02T20:52:58Z</time></trkpt>
<trkpt lat="49.982678" lon="4.973597"><time>2026-05-02T21:02:58Z</time></trkpt>
<trkpt lat="49.982710" lon="4.969094"><time>2026-05-02T21:12:58Z</time></trkpt>
<trkpt lat="49.982588" lon="4.968367"><time>2026-05-02T21:22:58Z</time></trkpt>
<trkpt lat="49.982603" lon="4.967155"><time>2026-05-02T21:32:58Z</time></trkpt>
<trkpt lat="49.982610" lon="4.965886"><time>2026-05-02T21:42:58Z</time></trkpt>
<trkpt lat="49.981665" lon="4.962611"><time>2026-05-02T21:52:58Z</time></trkpt>
<trkpt lat="49.981181" lon="4.960667"><time>2026-05-02T22:02:58Z</time></trkpt>
<trkpt lat="49.981125" lon="4.959175"><time>2026-05-02T22:12:58Z</time></trkpt>
<trkpt lat="49.981251" lon="4.957447"><time>2026-05-02T22:22:58Z</time></trkpt>
<trkpt lat="49.981294" lon="4.956137"><time>2026-05-02T22:32:58Z</time></trkpt>
<trkpt lat="49.981298" lon="4.955356"><time>2026-05-02T22:42:58Z</time></trkpt>
<trkpt lat="49.981067" lon="4.954698"><time>2026-05-02T22:52:58Z</time></trkpt>
<trkpt lat="49.980343" lon="4.953867"><time>2026-05-02T23:02:58Z</time></trkpt>
<trkpt lat="49.979978" lon="4.953165"><time>2026-05-02T23:12:58Z</time></trkpt>
<trkpt lat="49.979394" lon="4.951373"><time>2026-05-02T23:22:58Z</time></trkpt>
<trkpt lat="49.978754" lon="4.949790"><time>2026-05-02T23:32:58Z</time></trkpt>
<trkpt lat="49.978083" lon="4.949140"><time>2026-05-02T23:42:58Z</time></trkpt>
<trkpt lat="49.977527" lon="4.948869"><time>2026-05-02T23:52:58Z</time></trkpt>
<trkpt lat="49.976663" lon="4.949193"><time>2026-05-03T00:02:58Z</time></trkpt>
<trkpt lat="49.975499" lon="4.951674"><time>2026-05-03T00:12:58Z</time></trkpt>
<trkpt lat="49.975174" lon="4.951935"><time>2026-05-03T00:22:58Z</time></trkpt>
<trkpt lat="49.974554" lon="4.951983"><time>2026-05-03T00:32:58Z</time></trkpt>
<trkpt lat="49.974278" lon="4.951367"><time>2026-05-03T00:42:58Z</time></trkpt>
<trkpt lat="49.974078" lon="4.950012"><time>2026-05-03T00:52:58Z</time></trkpt>
<trkpt lat="49.973934" lon="4.949307"><time>2026-05-03T01:02:58Z</time></trkpt>
<trkpt lat="49.973843" lon="4.948559"><time>2026-05-03T01:12:58Z</time></trkpt>
<trkpt lat="49.973621" lon="4.947873"><time>2026-05-03T01:22:58Z</time></trkpt>
<trkpt lat="49.973217" lon="4.947743"><time>2026-05-03T01:32:58Z</time></trkpt>
<trkpt lat="49.972512" lon="4.946870"><time>2026-05-03T01:42:58Z</time></trkpt>
<trkpt lat="49.972551" lon="4.946202"><time>2026-05-03T01:52:58Z</time></trkpt>
<trkpt lat="49.972860" lon="4.945592"><time>2026-05-03T02:02:58Z</time></trkpt>
<trkpt lat="49.973183" lon="4.945582"><time>2026-05-03T02:12:58Z</time></trkpt>
<trkpt lat="49.975584" lon="4.945485"><time>2026-05-03T02:22:58Z</time></trkpt>
<trkpt lat="49.976149" lon="4.945855"><time>2026-05-03T02:32:58Z</time></trkpt>
<trkpt lat="49.976581" lon="4.945846"><time>2026-05-03T02:42:58Z</time></trkpt>
<trkpt lat="49.976897" lon="4.945515"><time>2026-05-03T02:52:58Z</time></trkpt>
<trkpt lat="49.977051" lon="4.945182"><time>2026-05-03T03:02:58Z</time></trkpt>
<trkpt lat="49.977241" lon="4.945087"><time>2026-05-03T03:12:58Z</time></trkpt>
</trkseg></trk>
<trk>
<name>ngdgdLv524</name>
<cmt>s</cmt>
<desc>Gedinne Chemin n°Lv524 Rue Raymond Gridlet / ligne 553 (vicinal SNCV) / Rue de Charleville</desc>
<link href="https://chemins.be/gedinne/chemin/Lv524"/><trkseg>
<trkpt lat="49.977241" lon="4.945087"><time>2026-05-03T03:12:58Z</time></trkpt>
<trkpt lat="49.978601" lon="4.939108"><time>2026-05-03T03:22:58Z</time></trkpt>
<trkpt lat="49.978199" lon="4.936873"><time>2026-05-03T03:32:58Z</time></trkpt>
<trkpt lat="49.977748" lon="4.935180"><time>2026-05-03T03:42:58Z</time></trkpt>
<trkpt lat="49.975659" lon="4.933985"><time>2026-05-03T03:52:58Z</time></trkpt>
<trkpt lat="49.974172" lon="4.929297"><time>2026-05-03T04:02:58Z</time></trkpt>
<trkpt lat="49.971080" lon="4.929121"><time>2026-05-03T04:12:58Z</time></trkpt>
<trkpt lat="49.969207" lon="4.927747"><time>2026-05-03T04:22:58Z</time></trkpt>
<trkpt lat="49.966015" lon="4.929842"><time>2026-05-03T04:32:58Z</time></trkpt>
</trkseg>
</trk>
</gpx>